sensor_id;sensor_type;location;lat;lon;timestamp;temperature;humidity
52058;DHT22;38063;53.210;6.504;2023-08-30T00:02:18;13.50;99.90
52058;DHT22;38063;53.210;6.504;2023-08-30T00:04:44;13.50;99.90
52058;DHT22;38063;53.210;6.504;2023-08-30T00:07:09;13.40;99.90
52058;DHT22;38063;53.210;6.504;2023-08-30T00:09:36;13.40;99.90
52058;DHT22;38063;53.210;6.504;2023-08-30T00:12:02;13.40;99.90
52058;DHT22;38063;53.210;6.504;2023-08-30T00:14:28;13.40;99.90
52058;DHT22;38063;53.210;6.504;2023-08-30T00:16:54;13.40;99.90
52058;DHT22;38063;53.210;6.504;2023-08-30T00:19:19;13.30;99.90
52058;DHT22;38063;53.210;6.504;2023-08-30T00:21:46;13.30;99.90
52058;DHT22;38063;53.210;6.504;2023-08-30T00:24:11;13.20;99.90
52058;DHT22;38063;53.210;6.504;2023-08-30T00:26:37;13.20;99.90
52058;DHT22;38063;53.210;6.504;2023-08-30T00:29:02;13.20;99.90
52058;DHT22;38063;53.210;6.504;2023-08-30T00:31:28;13.10;99.90
52058;DHT22;38063;53.210;6.504;2023-08-30T00:33:54;13.10;99.90
52058;DHT22;38063;53.210;6.504;2023-08-30T00:36:19;13.10;99.90
52058;DHT22;38063;53.210;6.504;2023-08-30T00:38:46;13.10;99.90
52058;DHT22;38063;53.210;6.504;2023-08-30T00:41:11;13.10;99.90
52058;DHT22;38063;53.210;6.504;2023-08-30T00:43:37;13.00;99.90
52058;DHT22;38063;53.210;6.504;2023-08-30T00:46:03;13.10;99.90
52058;DHT22;38063;53.210;6.504;2023-08-30T00:48:29;13.00;99.90
52058;DHT22;38063;53.210;6.504;2023-08-30T00:50:54;12.90;99.90
52058;DHT22;38063;53.210;6.504;2023-08-30T00:53:20;12.90;99.90
52058;DHT22;38063;53.210;6.504;2023-08-30T00:55:46;13.00;99.90
52058;DHT22;38063;53.210;6.504;2023-08-30T00:58:12;12.90;99.90
52058;DHT22;38063;53.210;6.504;2023-08-30T01:00:39;12.90;99.90
52058;DHT22;38063;53.210;6.504;2023-08-30T01:03:06;12.80;99.90
52058;DHT22;38063;53.210;6.504;2023-08-30T01:05:32;12.80;99.90
52058;DHT22;38063;53.210;6.504;2023-08-30T01:07:58;12.70;99.90
52058;DHT22;38063;53.210;6.504;2023-08-30T01:10:57;12.90;99.90
52058;DHT22;38063;53.210;6.504;2023-08-30T01:13:25;12.80;99.90
52058;DHT22;38063;53.210;6.504;2023-08-30T01:15:54;12.80;99.90
52058;DHT22;38063;53.210;6.504;2023-08-30T01:18:22;12.70;99.90
52058;DHT22;38063;53.210;6.504;2023-08-30T01:20:52;12.80;99.90
52058;DHT22;38063;53.210;6.504;2023-08-30T01:23:36;12.70;99.90
52058;DHT22;38063;53.210;6.504;2023-08-30T01:28:39;12.70;99.90
52058;DHT22;38063;53.210;6.504;2023-08-30T01:31:07;12.70;99.90
52058;DHT22;38063;53.210;6.504;2023-08-30T01:33:34;12.70;99.90
52058;DHT22;38063;53.210;6.504;2023-08-30T01:36:02;12.70;99.90
52058;DHT22;38063;53.210;6.504;2023-08-30T01:38:29;12.70;99.90
52058;DHT22;38063;53.210;6.504;2023-08-30T01:40:58;12.70;99.90
52058;DHT22;38063;53.210;6.504;2023-08-30T01:43:26;12.70;99.90
52058;DHT22;38063;53.210;6.504;2023-08-30T01:45:52;12.70;99.90
52058;DHT22;38063;53.210;6.504;2023-08-30T01:48:19;12.60;99.90
52058;DHT22;38063;53.210;6.504;2023-08-30T01:50:45;12.60;99.90
52058;DHT22;38063;53.210;6.504;2023-08-30T01:53:13;12.60;99.90
52058;DHT22;38063;53.210;6.504;2023-08-30T01:55:39;12.60;99.90
52058;DHT22;38063;53.210;6.504;2023-08-30T01:58:06;12.50;99.90
52058;DHT22;38063;53.210;6.504;2023-08-30T02:00:32;12.50;99.90
52058;DHT22;38063;53.210;6.504;2023-08-30T02:02:58;12.60;99.90
52058;DHT22;38063;53.210;6.504;2023-08-30T02:05:23;12.50;99.90
52058;DHT22;38063;53.210;6.504;2023-08-30T02:08:00;12.50;99.90
52058;DHT22;38063;53.210;6.504;2023-08-30T02:10:40;12.50;99.90
52058;DHT22;38063;53.210;6.504;2023-08-30T02:13:06;12.50;99.90
52058;DHT22;38063;53.210;6.504;2023-08-30T02:15:33;12.50;99.90
52058;DHT22;38063;53.210;6.504;2023-08-30T02:18:01;12.50;99.90
52058;DHT22;38063;53.210;6.504;2023-08-30T02:20:28;12.50;99.90
52058;DHT22;38063;53.210;6.504;2023-08-30T02:22:58;12.50;99.90
52058;DHT22;38063;53.210;6.504;2023-08-30T02:25:25;12.50;99.90
52058;DHT22;38063;53.210;6.504;2023-08-30T02:27:50;12.50;99.90
52058;DHT22;38063;53.210;6.504;2023-08-30T02:30:16;12.50;99.90
52058;DHT22;38063;53.210;6.504;2023-08-30T02:32:42;12.50;99.90
52058;DHT22;38063;53.210;6.504;2023-08-30T02:35:08;12.60;99.90
52058;DHT22;38063;53.210;6.504;2023-08-30T02:37:33;12.60;99.90
52058;DHT22;38063;53.210;6.504;2023-08-30T02:39:59;12.60;99.90
52058;DHT22;38063;53.210;6.504;2023-08-30T02:42:26;12.60;99.90
52058;DHT22;38063;53.210;6.504;2023-08-30T02:44:52;12.60;99.90
52058;DHT22;38063;53.210;6.504;2023-08-30T02:47:18;12.60;99.90
52058;DHT22;38063;53.210;6.504;2023-08-30T02:49:43;12.70;99.90
52058;DHT22;38063;53.210;6.504;2023-08-30T02:52:09;12.60;99.90
52058;DHT22;38063;53.210;6.504;2023-08-30T02:54:35;12.60;99.90
52058;DHT22;38063;53.210;6.504;2023-08-30T02:57:00;12.60;99.90
52058;DHT22;38063;53.210;6.504;2023-08-30T02:59:26;12.60;99.90
52058;DHT22;38063;53.210;6.504;2023-08-30T03:01:51;12.60;99.90
52058;DHT22;38063;53.210;6.504;2023-08-30T03:04:17;12.60;99.90
52058;DHT22;38063;53.210;6.504;2023-08-30T03:06:43;12.60;99.90
52058;DHT22;38063;53.210;6.504;2023-08-30T03:09:08;12.50;99.90
52058;DHT22;38063;53.210;6.504;2023-08-30T03:11:34;12.50;99.90
52058;DHT22;38063;53.210;6.504;2023-08-30T03:14:00;12.50;99.90
52058;DHT22;38063;53.210;6.504;2023-08-30T03:16:25;12.40;99.90
52058;DHT22;38063;53.210;6.504;2023-08-30T03:18:51;12.40;99.90
52058;DHT22;38063;53.210;6.504;2023-08-30T03:21:16;12.40;99.90
52058;DHT22;38063;53.210;6.504;2023-08-30T03:23:42;12.30;99.90
52058;DHT22;38063;53.210;6.504;2023-08-30T03:26:09;12.30;99.90
52058;DHT22;38063;53.210;6.504;2023-08-30T03:28:35;12.30;99.90
52058;DHT22;38063;53.210;6.504;2023-08-30T03:31:01;12.20;99.90
52058;DHT22;38063;53.210;6.504;2023-08-30T03:33:26;12.20;99.90
52058;DHT22;38063;53.210;6.504;2023-08-30T03:35:52;12.20;99.90
52058;DHT22;38063;53.210;6.504;2023-08-30T03:38:18;12.20;99.90
52058;DHT22;38063;53.210;6.504;2023-08-30T03:40:46;12.10;99.90
52058;DHT22;38063;53.210;6.504;2023-08-30T03:43:11;12.10;99.90
52058;DHT22;38063;53.210;6.504;2023-08-30T03:45:38;12.10;99.90
52058;DHT22;38063;53.210;6.504;2023-08-30T03:48:04;12.00;99.90
52058;DHT22;38063;53.210;6.504;2023-08-30T03:50:30;11.90;99.90
52058;DHT22;38063;53.210;6.504;2023-08-30T03:52:56;12.00;99.90
52058;DHT22;38063;53.210;6.504;2023-08-30T03:55:21;11.90;99.90
52058;DHT22;38063;53.210;6.504;2023-08-30T03:57:48;12.00;99.90
52058;DHT22;38063;53.210;6.504;2023-08-30T04:00:14;11.90;99.90
52058;DHT22;38063;53.210;6.504;2023-08-30T04:02:40;11.80;99.90
52058;DHT22;38063;53.210;6.504;2023-08-30T04:05:05;11.80;99.90
52058;DHT22;38063;53.210;6.504;2023-08-30T04:07:37;11.80;99.90
52058;DHT22;38063;53.210;6.504;2023-08-30T04:10:03;11.80;99.90
52058;DHT22;38063;53.210;6.504;2023-08-30T04:12:31;11.80;99.90
52058;DHT22;38063;53.210;6.504;2023-08-30T04:14:57;11.80;99.90
52058;DHT22;38063;53.210;6.504;2023-08-30T04:17:23;11.80;99.90
52058;DHT22;38063;53.210;6.504;2023-08-30T04:19:51;11.80;99.90
52058;DHT22;38063;53.210;6.504;2023-08-30T04:22:17;11.80;99.90
52058;DHT22;38063;53.210;6.504;2023-08-30T04:24:43;11.80;99.90
52058;DHT22;38063;53.210;6.504;2023-08-30T04:27:09;11.80;99.90
52058;DHT22;38063;53.210;6.504;2023-08-30T04:29:34;11.80;99.90
52058;DHT22;38063;53.210;6.504;2023-08-30T04:32:00;11.90;99.90
52058;DHT22;38063;53.210;6.504;2023-08-30T04:34:26;11.90;99.90
52058;DHT22;38063;53.210;6.504;2023-08-30T04:36:52;11.80;99.90
52058;DHT22;38063;53.210;6.504;2023-08-30T04:39:17;11.80;99.90
52058;DHT22;38063;53.210;6.504;2023-08-30T04:41:43;11.80;99.90
52058;DHT22;38063;53.210;6.504;2023-08-30T04:44:09;11.70;99.90
52058;DHT22;38063;53.210;6.504;2023-08-30T04:46:34;11.80;99.90
52058;DHT22;38063;53.210;6.504;2023-08-30T04:49:00;11.70;99.90
52058;DHT22;38063;53.210;6.504;2023-08-30T04:51:26;11.70;99.90
52058;DHT22;38063;53.210;6.504;2023-08-30T04:53:52;11.70;99.90
52058;DHT22;38063;53.210;6.504;2023-08-30T04:56:18;11.70;99.90
52058;DHT22;38063;53.210;6.504;2023-08-30T04:58:44;11.70;99.90
52058;DHT22;38063;53.210;6.504;2023-08-30T05:01:10;11.70;99.90
52058;DHT22;38063;53.210;6.504;2023-08-30T05:03:39;11.70;99.90
52058;DHT22;38063;53.210;6.504;2023-08-30T05:06:04;12.00;99.90
52058;DHT22;38063;53.210;6.504;2023-08-30T05:08:30;11.80;99.90
52058;DHT22;38063;53.210;6.504;2023-08-30T05:10:56;11.80;99.90
52058;DHT22;38063;53.210;6.504;2023-08-30T05:13:22;11.80;99.90
52058;DHT22;38063;53.210;6.504;2023-08-30T05:15:47;11.90;99.90
52058;DHT22;38063;53.210;6.504;2023-08-30T05:18:13;11.90;99.90
52058;DHT22;38063;53.210;6.504;2023-08-30T05:20:38;11.90;99.90
52058;DHT22;38063;53.210;6.504;2023-08-30T05:23:04;12.00;99.90
52058;DHT22;38063;53.210;6.504;2023-08-30T05:25:30;12.00;99.90
52058;DHT22;38063;53.210;6.504;2023-08-30T05:27:55;12.10;99.90
52058;DHT22;38063;53.210;6.504;2023-08-30T05:30:21;12.20;99.90
52058;DHT22;38063;53.210;6.504;2023-08-30T05:32:47;12.30;99.90
52058;DHT22;38063;53.210;6.504;2023-08-30T05:35:12;12.20;99.90
52058;DHT22;38063;53.210;6.504;2023-08-30T05:37:38;12.30;99.90
52058;DHT22;38063;53.210;6.504;2023-08-30T05:40:04;12.30;99.90
52058;DHT22;38063;53.210;6.504;2023-08-30T05:42:30;12.30;99.90
52058;DHT22;38063;53.210;6.504;2023-08-30T05:44:56;12.40;99.90
52058;DHT22;38063;53.210;6.504;2023-08-30T05:47:21;12.40;99.90
52058;DHT22;38063;53.210;6.504;2023-08-30T05:49:47;12.50;99.90
52058;DHT22;38063;53.210;6.504;2023-08-30T05:52:15;12.50;99.90
52058;DHT22;38063;53.210;6.504;2023-08-30T05:54:41;12.50;99.90
52058;DHT22;38063;53.210;6.504;2023-08-30T05:57:09;12.60;99.90
52058;DHT22;38063;53.210;6.504;2023-08-30T05:59:34;12.60;99.90
52058;DHT22;38063;53.210;6.504;2023-08-30T06:02:03;12.70;99.90
52058;DHT22;38063;53.210;6.504;2023-08-30T06:04:30;12.70;99.90
52058;DHT22;38063;53.210;6.504;2023-08-30T06:06:55;12.80;99.90
52058;DHT22;38063;53.210;6.504;2023-08-30T06:09:21;12.90;99.90
52058;DHT22;38063;53.210;6.504;2023-08-30T06:11:46;12.90;99.90
52058;DHT22;38063;53.210;6.504;2023-08-30T06:14:12;13.10;99.90
52058;DHT22;38063;53.210;6.504;2023-08-30T06:16:38;13.10;99.90
52058;DHT22;38063;53.210;6.504;2023-08-30T06:19:03;13.20;99.90
52058;DHT22;38063;53.210;6.504;2023-08-30T06:21:29;13.30;99.90
52058;DHT22;38063;53.210;6.504;2023-08-30T06:23:55;13.40;99.90
52058;DHT22;38063;53.210;6.504;2023-08-30T06:26:21;13.50;99.90
52058;DHT22;38063;53.210;6.504;2023-08-30T06:28:47;13.80;99.90
52058;DHT22;38063;53.210;6.504;2023-08-30T06:31:13;13.80;99.90
52058;DHT22;38063;53.210;6.504;2023-08-30T06:33:38;14.00;99.90
52058;DHT22;38063;53.210;6.504;2023-08-30T06:36:05;14.10;99.90
52058;DHT22;38063;53.210;6.504;2023-08-30T06:38:31;14.10;99.90
52058;DHT22;38063;53.210;6.504;2023-08-30T06:40:59;14.20;99.90
52058;DHT22;38063;53.210;6.504;2023-08-30T06:43:25;14.20;99.90
52058;DHT22;38063;53.210;6.504;2023-08-30T06:45:51;14.20;99.90
52058;DHT22;38063;53.210;6.504;2023-08-30T06:48:18;14.20;99.90
52058;DHT22;38063;53.210;6.504;2023-08-30T06:50:44;14.20;99.90
52058;DHT22;38063;53.210;6.504;2023-08-30T06:53:10;14.20;99.90
52058;DHT22;38063;53.210;6.504;2023-08-30T06:55:35;14.20;99.90
52058;DHT22;38063;53.210;6.504;2023-08-30T06:58:02;14.20;99.90
52058;DHT22;38063;53.210;6.504;2023-08-30T07:00:28;14.20;99.90
52058;DHT22;38063;53.210;6.504;2023-08-30T07:02:54;14.30;99.90
52058;DHT22;38063;53.210;6.504;2023-08-30T07:05:20;14.40;99.90
52058;DHT22;38063;53.210;6.504;2023-08-30T07:07:45;14.50;99.90
52058;DHT22;38063;53.210;6.504;2023-08-30T07:10:11;14.60;99.90
52058;DHT22;38063;53.210;6.504;2023-08-30T07:12:37;14.70;99.90
52058;DHT22;38063;53.210;6.504;2023-08-30T07:15:02;14.70;99.90
52058;DHT22;38063;53.210;6.504;2023-08-30T07:17:29;14.70;99.90
52058;DHT22;38063;53.210;6.504;2023-08-30T07:19:54;14.70;99.90
52058;DHT22;38063;53.210;6.504;2023-08-30T07:22:20;14.60;99.90
52058;DHT22;38063;53.210;6.504;2023-08-30T07:24:46;14.80;99.90
52058;DHT22;38063;53.210;6.504;2023-08-30T07:27:11;14.80;99.90
52058;DHT22;38063;53.210;6.504;2023-08-30T07:29:40;14.70;99.90
52058;DHT22;38063;53.210;6.504;2023-08-30T07:32:09;14.80;99.90
52058;DHT22;38063;53.210;6.504;2023-08-30T07:34:35;14.80;99.90
52058;DHT22;38063;53.210;6.504;2023-08-30T07:37:01;14.90;99.90
52058;DHT22;38063;53.210;6.504;2023-08-30T07:39:27;14.90;99.90
52058;DHT22;38063;53.210;6.504;2023-08-30T07:41:53;15.00;99.90
52058;DHT22;38063;53.210;6.504;2023-08-30T07:44:18;15.10;99.90
52058;DHT22;38063;53.210;6.504;2023-08-30T07:46:45;15.30;99.90
52058;DHT22;38063;53.210;6.504;2023-08-30T07:49:11;15.50;99.90
52058;DHT22;38063;53.210;6.504;2023-08-30T07:51:37;15.70;99.90
52058;DHT22;38063;53.210;6.504;2023-08-30T07:54:03;15.90;99.90
52058;DHT22;38063;53.210;6.504;2023-08-30T07:56:28;16.00;99.90
52058;DHT22;38063;53.210;6.504;2023-08-30T07:58:54;16.00;99.90
52058;DHT22;38063;53.210;6.504;2023-08-30T08:01:20;16.10;99.90
52058;DHT22;38063;53.210;6.504;2023-08-30T08:03:46;16.20;99.90
52058;DHT22;38063;53.210;6.504;2023-08-30T08:06:12;16.20;99.90
52058;DHT22;38063;53.210;6.504;2023-08-30T08:08:38;16.40;99.90
52058;DHT22;38063;53.210;6.504;2023-08-30T08:11:03;16.50;99.90
52058;DHT22;38063;53.210;6.504;2023-08-30T08:13:29;16.50;99.90
52058;DHT22;38063;53.210;6.504;2023-08-30T08:15:58;16.60;99.90
52058;DHT22;38063;53.210;6.504;2023-08-30T08:18:24;16.70;99.90
52058;DHT22;38063;53.210;6.504;2023-08-30T08:20:50;16.70;99.90
52058;DHT22;38063;53.210;6.504;2023-08-30T08:23:16;16.70;99.90
52058;DHT22;38063;53.210;6.504;2023-08-30T08:25:41;16.70;99.90
52058;DHT22;38063;53.210;6.504;2023-08-30T08:28:07;16.80;99.90
52058;DHT22;38063;53.210;6.504;2023-08-30T08:30:33;16.80;99.90
52058;DHT22;38063;53.210;6.504;2023-08-30T08:32:58;16.80;99.90
52058;DHT22;38063;53.210;6.504;2023-08-30T08:35:25;16.90;99.90
52058;DHT22;38063;53.210;6.504;2023-08-30T08:37:51;16.90;99.90
52058;DHT22;38063;53.210;6.504;2023-08-30T08:40:16;16.90;99.90
52058;DHT22;38063;53.210;6.504;2023-08-30T08:42:43;16.90;99.90
52058;DHT22;38063;53.210;6.504;2023-08-30T08:45:10;16.90;99.90
52058;DHT22;38063;53.210;6.504;2023-08-30T08:47:37;17.00;99.90
52058;DHT22;38063;53.210;6.504;2023-08-30T08:50:04;17.10;99.90
52058;DHT22;38063;53.210;6.504;2023-08-30T08:52:30;17.10;99.90
52058;DHT22;38063;53.210;6.504;2023-08-30T08:54:57;17.10;99.90
52058;DHT22;38063;53.210;6.504;2023-08-30T08:57:22;17.10;99.90
52058;DHT22;38063;53.210;6.504;2023-08-30T08:59:48;17.10;99.90
52058;DHT22;38063;53.210;6.504;2023-08-30T09:02:15;17.10;99.90
52058;DHT22;38063;53.210;6.504;2023-08-30T09:04:41;17.00;99.90
52058;DHT22;38063;53.210;6.504;2023-08-30T09:07:07;16.90;99.90
52058;DHT22;38063;53.210;6.504;2023-08-30T09:09:33;16.90;99.90
52058;DHT22;38063;53.210;6.504;2023-08-30T09:11:59;16.80;99.90
52058;DHT22;38063;53.210;6.504;2023-08-30T09:14:25;16.80;99.90
52058;DHT22;38063;53.210;6.504;2023-08-30T09:16:58;16.80;99.90
52058;DHT22;38063;53.210;6.504;2023-08-30T09:19:24;16.80;99.90
52058;DHT22;38063;53.210;6.504;2023-08-30T09:21:54;16.70;99.90
52058;DHT22;38063;53.210;6.504;2023-08-30T09:24:20;16.60;99.90
52058;DHT22;38063;53.210;6.504;2023-08-30T09:26:53;16.60;99.90
52058;DHT22;38063;53.210;6.504;2023-08-30T09:29:20;16.60;99.90
52058;DHT22;38063;53.210;6.504;2023-08-30T09:31:53;16.60;99.90
52058;DHT22;38063;53.210;6.504;2023-08-30T09:34:24;16.60;99.90
52058;DHT22;38063;53.210;6.504;2023-08-30T09:36:53;16.60;99.90
52058;DHT22;38063;53.210;6.504;2023-08-30T09:39:19;16.60;99.90
52058;DHT22;38063;53.210;6.504;2023-08-30T09:41:46;16.60;99.90
52058;DHT22;38063;53.210;6.504;2023-08-30T09:44:14;16.70;99.90
52058;DHT22;38063;53.210;6.504;2023-08-30T09:46:49;16.80;99.90
52058;DHT22;38063;53.210;6.504;2023-08-30T09:49:18;16.80;99.90
52058;DHT22;38063;53.210;6.504;2023-08-30T09:51:46;16.80;99.90
52058;DHT22;38063;53.210;6.504;2023-08-30T09:54:17;16.80;99.90
52058;DHT22;38063;53.210;6.504;2023-08-30T09:56:44;16.90;99.90
52058;DHT22;38063;53.210;6.504;2023-08-30T09:59:11;16.90;99.90
52058;DHT22;38063;53.210;6.504;2023-08-30T10:01:38;16.90;99.90
52058;DHT22;38063;53.210;6.504;2023-08-30T10:04:04;17.00;99.90
52058;DHT22;38063;53.210;6.504;2023-08-30T10:06:32;17.10;99.90
52058;DHT22;38063;53.210;6.504;2023-08-30T10:08:59;17.20;99.90
52058;DHT22;38063;53.210;6.504;2023-08-30T10:11:27;17.30;99.90
52058;DHT22;38063;53.210;6.504;2023-08-30T10:13:55;17.50;99.90
52058;DHT22;38063;53.210;6.504;2023-08-30T10:16:23;17.60;99.90
52058;DHT22;38063;53.210;6.504;2023-08-30T10:19:05;17.60;99.90
52058;DHT22;38063;53.210;6.504;2023-08-30T10:21:35;17.60;99.90
52058;DHT22;38063;53.210;6.504;2023-08-30T10:24:02;17.60;99.90
52058;DHT22;38063;53.210;6.504;2023-08-30T10:26:29;17.60;99.90
52058;DHT22;38063;53.210;6.504;2023-08-30T10:28:57;17.60;99.90
52058;DHT22;38063;53.210;6.504;2023-08-30T10:31:23;17.50;99.90
52058;DHT22;38063;53.210;6.504;2023-08-30T10:33:55;17.60;99.90
52058;DHT22;38063;53.210;6.504;2023-08-30T10:36:25;17.60;99.90
52058;DHT22;38063;53.210;6.504;2023-08-30T10:38:55;17.60;99.90
52058;DHT22;38063;53.210;6.504;2023-08-30T10:41:25;17.70;99.90
52058;DHT22;38063;53.210;6.504;2023-08-30T10:43:52;17.70;99.90
52058;DHT22;38063;53.210;6.504;2023-08-30T10:46:30;17.80;99.90
52058;DHT22;38063;53.210;6.504;2023-08-30T10:49:07;17.90;99.90
52058;DHT22;38063;53.210;6.504;2023-08-30T10:51:38;18.00;99.90
52058;DHT22;38063;53.210;6.504;2023-08-30T10:54:11;18.10;99.90
52058;DHT22;38063;53.210;6.504;2023-08-30T10:56:56;18.10;99.90
52058;DHT22;38063;53.210;6.504;2023-08-30T10:59:23;18.20;99.90
52058;DHT22;38063;53.210;6.504;2023-08-30T11:01:51;18.30;99.90
52058;DHT22;38063;53.210;6.504;2023-08-30T11:04:21;18.30;99.90
52058;DHT22;38063;53.210;6.504;2023-08-30T11:06:49;18.30;99.90
52058;DHT22;38063;53.210;6.504;2023-08-30T11:09:16;18.30;99.90
52058;DHT22;38063;53.210;6.504;2023-08-30T11:11:43;18.40;99.90
52058;DHT22;38063;53.210;6.504;2023-08-30T11:14:10;18.50;99.90
52058;DHT22;38063;53.210;6.504;2023-08-30T11:16:36;18.60;99.90
52058;DHT22;38063;53.210;6.504;2023-08-30T11:19:06;18.60;99.90
52058;DHT22;38063;53.210;6.504;2023-08-30T11:21:34;18.70;99.90
52058;DHT22;38063;53.210;6.504;2023-08-30T11:24:00;18.70;99.90
52058;DHT22;38063;53.210;6.504;2023-08-30T11:26:25;18.70;99.90
52058;DHT22;38063;53.210;6.504;2023-08-30T11:28:51;18.70;99.90
52058;DHT22;38063;53.210;6.504;2023-08-30T11:31:24;18.70;99.90
52058;DHT22;38063;53.210;6.504;2023-08-30T11:36:28;18.70;99.90
52058;DHT22;38063;53.210;6.504;2023-08-30T11:38:54;18.70;99.90
52058;DHT22;38063;53.210;6.504;2023-08-30T11:41:21;18.70;99.90
52058;DHT22;38063;53.210;6.504;2023-08-30T11:43:50;18.80;99.90
52058;DHT22;38063;53.210;6.504;2023-08-30T11:46:17;18.70;99.90
52058;DHT22;38063;53.210;6.504;2023-08-30T11:48:43;18.70;99.90
52058;DHT22;38063;53.210;6.504;2023-08-30T11:51:10;18.70;99.90
52058;DHT22;38063;53.210;6.504;2023-08-30T11:53:37;18.70;99.90
52058;DHT22;38063;53.210;6.504;2023-08-30T11:56:07;18.70;99.90
52058;DHT22;38063;53.210;6.504;2023-08-30T11:58:37;18.70;99.90
52058;DHT22;38063;53.210;6.504;2023-08-30T12:01:03;18.80;99.90
52058;DHT22;38063;53.210;6.504;2023-08-30T12:03:31;18.80;99.90
52058;DHT22;38063;53.210;6.504;2023-08-30T12:05:57;18.70;99.90
52058;DHT22;38063;53.210;6.504;2023-08-30T12:08:28;18.70;99.90
52058;DHT22;38063;53.210;6.504;2023-08-30T12:10:56;18.60;99.90
52058;DHT22;38063;53.210;6.504;2023-08-30T12:13:29;18.60;99.90
52058;DHT22;38063;53.210;6.504;2023-08-30T12:15:57;18.60;99.90
52058;DHT22;38063;53.210;6.504;2023-08-30T12:18:27;18.50;99.90
52058;DHT22;38063;53.210;6.504;2023-08-30T12:21:03;18.40;99.90
52058;DHT22;38063;53.210;6.504;2023-08-30T12:23:32;18.40;99.90
52058;DHT22;38063;53.210;6.504;2023-08-30T12:26:03;18.30;99.90
52058;DHT22;38063;53.210;6.504;2023-08-30T12:28:33;18.20;99.90
52058;DHT22;38063;53.210;6.504;2023-08-30T12:30:59;18.10;99.90
52058;DHT22;38063;53.210;6.504;2023-08-30T12:33:25;18.00;99.90
52058;DHT22;38063;53.210;6.504;2023-08-30T12:35:55;17.90;99.90
52058;DHT22;38063;53.210;6.504;2023-08-30T12:38:21;17.80;99.90
52058;DHT22;38063;53.210;6.504;2023-08-30T12:40:49;17.70;99.90
52058;DHT22;38063;53.210;6.504;2023-08-30T12:43:16;17.60;99.90
52058;DHT22;38063;53.210;6.504;2023-08-30T12:45:42;17.50;99.90
52058;DHT22;38063;53.210;6.504;2023-08-30T12:48:09;17.40;99.90
52058;DHT22;38063;53.210;6.504;2023-08-30T12:50:38;17.40;99.90
52058;DHT22;38063;53.210;6.504;2023-08-30T12:53:05;17.40;99.90
52058;DHT22;38063;53.210;6.504;2023-08-30T12:55:32;17.30;99.90
52058;DHT22;38063;53.210;6.504;2023-08-30T12:57:58;17.20;99.90
52058;DHT22;38063;53.210;6.504;2023-08-30T13:00:24;17.20;99.90
52058;DHT22;38063;53.210;6.504;2023-08-30T13:02:50;17.10;99.90
52058;DHT22;38063;53.210;6.504;2023-08-30T13:05:16;17.10;99.90
52058;DHT22;38063;53.210;6.504;2023-08-30T13:07:42;17.10;99.90
52058;DHT22;38063;53.210;6.504;2023-08-30T13:10:08;17.00;99.90
52058;DHT22;38063;53.210;6.504;2023-08-30T13:12:34;17.00;99.90
52058;DHT22;38063;53.210;6.504;2023-08-30T13:14:59;17.00;99.90
52058;DHT22;38063;53.210;6.504;2023-08-30T13:17:25;16.90;99.90
52058;DHT22;38063;53.210;6.504;2023-08-30T13:19:50;16.90;99.90
52058;DHT22;38063;53.210;6.504;2023-08-30T13:22:16;16.80;99.90
52058;DHT22;38063;53.210;6.504;2023-08-30T13:24:43;16.80;99.90
52058;DHT22;38063;53.210;6.504;2023-08-30T13:27:09;16.80;99.90
52058;DHT22;38063;53.210;6.504;2023-08-30T13:29:35;16.70;99.90
52058;DHT22;38063;53.210;6.504;2023-08-30T13:32:01;16.60;99.90
52058;DHT22;38063;53.210;6.504;2023-08-30T13:34:27;16.50;99.90
52058;DHT22;38063;53.210;6.504;2023-08-30T13:36:52;16.60;99.90
52058;DHT22;38063;53.210;6.504;2023-08-30T13:39:18;16.50;99.90
52058;DHT22;38063;53.210;6.504;2023-08-30T13:41:46;16.50;99.90
52058;DHT22;38063;53.210;6.504;2023-08-30T13:44:13;16.50;99.90
52058;DHT22;38063;53.210;6.504;2023-08-30T13:46:38;16.50;99.90
52058;DHT22;38063;53.210;6.504;2023-08-30T13:49:04;16.50;99.90
52058;DHT22;38063;53.210;6.504;2023-08-30T13:51:30;16.40;99.90
52058;DHT22;38063;53.210;6.504;2023-08-30T13:53:56;16.40;99.90
52058;DHT22;38063;53.210;6.504;2023-08-30T13:56:22;16.40;99.90
52058;DHT22;38063;53.210;6.504;2023-08-30T13:58:48;16.40;99.90
52058;DHT22;38063;53.210;6.504;2023-08-30T14:01:14;16.40;99.90
52058;DHT22;38063;53.210;6.504;2023-08-30T14:03:40;16.30;99.90
52058;DHT22;38063;53.210;6.504;2023-08-30T14:06:06;16.30;99.90
52058;DHT22;38063;53.210;6.504;2023-08-30T14:08:32;16.30;99.90
52058;DHT22;38063;53.210;6.504;2023-08-30T14:10:58;16.20;99.90
52058;DHT22;38063;53.210;6.504;2023-08-30T14:13:24;16.00;99.90
52058;DHT22;38063;53.210;6.504;2023-08-30T14:15:49;16.00;99.90
52058;DHT22;38063;53.210;6.504;2023-08-30T14:18:16;15.90;99.90
52058;DHT22;38063;53.210;6.504;2023-08-30T14:20:42;15.90;99.90
52058;DHT22;38063;53.210;6.504;2023-08-30T14:23:08;15.90;99.90
52058;DHT22;38063;53.210;6.504;2023-08-30T14:25:34;15.90;99.90
52058;DHT22;38063;53.210;6.504;2023-08-30T14:28:00;15.90;99.90
52058;DHT22;38063;53.210;6.504;2023-08-30T14:30:27;16.00;99.90
52058;DHT22;38063;53.210;6.504;2023-08-30T14:32:52;16.00;99.90
52058;DHT22;38063;53.210;6.504;2023-08-30T14:35:18;15.90;99.90
52058;DHT22;38063;53.210;6.504;2023-08-30T14:37:50;15.90;99.90
52058;DHT22;38063;53.210;6.504;2023-08-30T14:40:15;15.90;99.90
52058;DHT22;38063;53.210;6.504;2023-08-30T14:42:42;16.00;99.90
52058;DHT22;38063;53.210;6.504;2023-08-30T14:45:07;16.00;99.90
52058;DHT22;38063;53.210;6.504;2023-08-30T14:47:34;16.00;99.90
52058;DHT22;38063;53.210;6.504;2023-08-30T14:50:00;16.00;99.90
52058;DHT22;38063;53.210;6.504;2023-08-30T14:52:28;16.00;99.90
52058;DHT22;38063;53.210;6.504;2023-08-30T14:54:54;16.00;99.90
52058;DHT22;38063;53.210;6.504;2023-08-30T14:57:22;16.00;99.90
52058;DHT22;38063;53.210;6.504;2023-08-30T14:59:50;16.00;99.90
52058;DHT22;38063;53.210;6.504;2023-08-30T15:02:15;16.00;99.90
52058;DHT22;38063;53.210;6.504;2023-08-30T15:04:41;16.00;99.90
52058;DHT22;38063;53.210;6.504;2023-08-30T15:07:07;16.00;99.90
52058;DHT22;38063;53.210;6.504;2023-08-30T15:09:32;16.10;99.90
52058;DHT22;38063;53.210;6.504;2023-08-30T15:11:58;16.10;99.90
52058;DHT22;38063;53.210;6.504;2023-08-30T15:14:25;16.10;99.90
52058;DHT22;38063;53.210;6.504;2023-08-30T15:16:50;16.20;99.90
52058;DHT22;38063;53.210;6.504;2023-08-30T15:19:16;16.30;99.90
52058;DHT22;38063;53.210;6.504;2023-08-30T15:21:42;16.40;99.90
52058;DHT22;38063;53.210;6.504;2023-08-30T15:24:08;16.70;99.90
52058;DHT22;38063;53.210;6.504;2023-08-30T15:26:34;16.90;99.90
52058;DHT22;38063;53.210;6.504;2023-08-30T15:28:59;17.00;99.90
52058;DHT22;38063;53.210;6.504;2023-08-30T15:31:25;17.00;99.90
52058;DHT22;38063;53.210;6.504;2023-08-30T15:33:51;17.10;99.90